createdAt,value
2022-11-05T00:00:38.583Z,10.83
2022-11-05T00:03:39.610Z,9.63
2022-11-05T00:06:29.672Z,7.00
2022-11-05T00:09:15.470Z,16.70
2022-11-05T00:12:02.531Z,11.93
2022-11-05T00:14:48.365Z,9.40
2022-11-05T00:17:17.391Z,8.13
2022-11-05T00:19:45.835Z,12.10
2022-11-05T00:22:32.200Z,10.57
2022-11-05T00:25:16.829Z,8.27
2022-11-05T00:27:51.999Z,9.20
2022-11-05T00:30:23.673Z,6.90
2022-11-05T00:32:54.061Z,4.60
2022-11-05T00:35:23.749Z,5.30
2022-11-05T00:37:55.257Z,3.93
2022-11-05T00:40:23.748Z,3.50
2022-11-05T00:43:25.357Z,5.40
2022-11-05T00:45:53.934Z,3.57
2022-11-05T00:48:40.608Z,4.23
2022-11-05T00:51:10.295Z,4.23
2022-11-05T00:53:38.829Z,5.87
2022-11-05T00:56:08.321Z,5.60
2022-11-05T00:58:38.441Z,2.80
2022-11-05T01:01:07.225Z,2.30
2022-11-05T01:03:38.764Z,3.20
2022-11-05T01:06:14.975Z,7.00
2022-11-05T01:08:46.179Z,2.73
2022-11-05T01:11:33.277Z,3.90
2022-11-05T01:14:07.794Z,3.70
2022-11-05T01:16:37.614Z,3.40
2022-11-05T01:19:09.293Z,2.83
2022-11-05T01:21:37.803Z,1.53
2022-11-05T01:24:07.354Z,4.37
2022-11-05T01:26:35.823Z,3.40
2022-11-05T01:29:06.837Z,2.90
2022-11-05T01:31:35.398Z,12.97
2022-11-05T01:34:04.376Z,2.20
2022-11-05T01:36:32.848Z,4.67
2022-11-05T01:39:01.967Z,1.87
2022-11-05T01:41:30.561Z,11.53
2022-11-05T01:44:00.778Z,26.37
2022-11-05T01:46:35.603Z,3.20
2022-11-05T01:49:16.132Z,8.90
2022-11-05T01:51:49.431Z,2.70
2022-11-05T01:54:24.839Z,3.20
2022-11-05T01:57:00.010Z,2.70
2022-11-05T01:59:33.649Z,4.23
2022-11-05T02:02:05.235Z,2.40
2022-11-05T02:04:43.620Z,5.63
2022-11-05T02:07:13.029Z,4.87
2022-11-05T02:09:50.783Z,4.73
2022-11-05T02:12:22.108Z,3.07
2022-11-05T02:14:50.620Z,3.90
2022-11-05T02:17:34.721Z,3.23
2022-11-05T02:20:26.453Z,2.20
2022-11-05T02:23:57.909Z,4.27
2022-11-05T02:27:02.649Z,2.43
2022-11-05T02:30:12.705Z,2.20
2022-11-05T02:33:18.533Z,2.73
2022-11-05T02:36:21.676Z,7.00
2022-11-05T02:39:09.644Z,9.40
2022-11-05T02:41:53.953Z,4.53
2022-11-05T02:44:35.700Z,3.40
2022-11-05T02:47:18.310Z,7.13
2022-11-05T02:49:59.134Z,11.53
2022-11-05T02:52:38.791Z,3.77
2022-11-05T02:55:18.100Z,6.80
2022-11-05T02:57:48.657Z,3.30
2022-11-05T03:00:51.472Z,4.33
2022-11-05T03:03:28.654Z,3.43
2022-11-05T03:06:47.432Z,6.63
2022-11-05T03:10:07.125Z,3.80
2022-11-05T03:12:48.629Z,4.00
2022-11-05T03:15:29.009Z,3.30
2022-11-05T03:18:12.310Z,5.23
2022-11-05T03:20:48.361Z,7.07
2022-11-05T03:23:29.661Z,4.10
2022-11-05T03:26:09.530Z,4.00
2022-11-05T03:28:42.654Z,5.10
2022-11-05T03:31:15.700Z,3.00
2022-11-05T03:33:47.819Z,3.10
2022-11-05T03:36:24.514Z,7.30
2022-11-05T03:38:58.212Z,4.67
2022-11-05T03:41:29.759Z,5.10
2022-11-05T03:44:07.416Z,3.13
2022-11-05T03:46:42.347Z,4.67
2022-11-05T03:49:20.186Z,6.13
2022-11-05T03:51:56.803Z,3.57
2022-11-05T03:54:27.072Z,1.90
2022-11-05T03:57:06.021Z,3.20
2022-11-05T03:59:43.270Z,2.87
2022-11-05T04:02:15.285Z,2.27
2022-11-05T04:04:44.883Z,3.33
2022-11-05T04:07:31.470Z,6.23
2022-11-05T04:10:19.576Z,3.53
2022-11-05T04:13:06.674Z,3.50
2022-11-05T04:15:55.561Z,5.20
2022-11-05T04:18:23.510Z,16.00
2022-11-05T04:21:09.598Z,13.30
2022-11-05T04:23:55.911Z,8.90
2022-11-05T04:26:26.217Z,3.00
2022-11-05T04:29:12.217Z,3.30
2022-11-05T04:31:43.272Z,4.97
2022-11-05T04:34:12.909Z,3.23
2022-11-05T04:36:41.457Z,13.57
2022-11-05T04:39:09.948Z,7.70
2022-11-05T04:41:39.883Z,5.10
2022-11-05T04:44:08.986Z,3.83
2022-11-05T04:46:37.618Z,3.27
2022-11-05T04:49:06.328Z,3.27
2022-11-05T04:51:35.283Z,5.73
2022-11-05T04:54:03.860Z,11.73
2022-11-05T04:56:34.022Z,4.77
2022-11-05T04:59:03.923Z,2.90
2022-11-05T05:01:33.021Z,7.87
2022-11-05T05:04:01.611Z,6.20
2022-11-05T05:06:30.144Z,5.60
2022-11-05T05:08:59.360Z,3.43
2022-11-05T05:11:28.965Z,3.50
2022-11-05T05:13:57.521Z,6.93
2022-11-05T05:16:29.496Z,5.63
2022-11-05T05:18:58.674Z,5.63
2022-11-05T05:21:39.071Z,7.30
2022-11-05T05:24:11.084Z,8.37
2022-11-05T05:26:42.456Z,8.93
2022-11-05T05:29:12.347Z,16.60
2022-11-05T05:31:43.461Z,5.37
2022-11-05T05:34:15.415Z,3.93
2022-11-05T05:36:44.584Z,9.53
2022-11-05T05:39:14.245Z,7.73
2022-11-05T05:41:42.748Z,8.20
2022-11-05T05:44:11.392Z,5.30
2022-11-05T05:46:41.366Z,4.93
2022-11-05T05:49:13.930Z,4.90
2022-11-05T05:51:42.566Z,5.43
2022-11-05T05:54:13.325Z,8.77
2022-11-05T05:56:44.315Z,86.07
2022-11-05T05:59:13.229Z,91.13
2022-11-05T06:01:45.050Z,79.57
2022-11-05T06:04:14.440Z,45.23
2022-11-05T06:06:43.040Z,35.90
2022-11-05T06:09:11.554Z,32.77
2022-11-05T06:11:40.119Z,4.43
2022-11-05T06:14:11.764Z,8.17
2022-11-05T06:16:42.070Z,64.60
2022-11-05T06:19:11.365Z,57.23
2022-11-05T06:21:40.503Z,49.20
2022-11-05T06:24:11.280Z,56.33
2022-11-05T06:26:43.233Z,63.47
2022-11-05T06:29:11.862Z,47.47
2022-11-05T06:31:40.503Z,64.93
2022-11-05T06:34:10.470Z,31.47
2022-11-05T06:36:39.020Z,32.23
2022-11-05T06:39:11.447Z,41.03
2022-11-05T06:42:03.975Z,19.93
2022-11-05T06:44:29.280Z,13.63
2022-11-05T06:46:57.845Z,15.80
2022-11-05T06:49:28.820Z,24.63
2022-11-05T06:51:58.981Z,20.80
2022-11-05T06:54:27.861Z,36.37
2022-11-05T06:56:57.048Z,32.07
2022-11-05T06:59:25.686Z,26.23
2022-11-05T07:01:54.440Z,35.70
2022-11-05T07:04:22.922Z,42.67
2022-11-05T07:06:52.981Z,7.97
2022-11-05T07:09:21.550Z,12.43
2022-11-05T07:11:51.468Z,24.37
2022-11-05T07:14:19.947Z,11.80
2022-11-05T07:16:48.490Z,8.73
2022-11-05T07:19:17.069Z,49.07
2022-11-05T07:21:46.221Z,28.90
2022-11-05T07:24:16.903Z,80.50
2022-11-05T07:26:45.541Z,64.87
2022-11-05T07:29:14.340Z,35.70
2022-11-05T07:31:44.324Z,10.93
2022-11-05T07:34:12.827Z,30.30
2022-11-05T07:36:41.432Z,12.30
2022-11-05T07:39:11.164Z,71.47
2022-11-05T07:41:41.297Z,29.97
2022-11-05T07:44:09.995Z,28.53
2022-11-05T07:46:38.572Z,19.73
2022-11-05T07:49:07.183Z,18.93
2022-11-05T07:51:35.849Z,13.73
2022-11-05T07:54:04.970Z,45.87
2022-11-05T07:56:33.726Z,9.90
2022-11-05T07:59:03.702Z,27.13
2022-11-05T08:01:32.453Z,14.13
2022-11-05T08:04:01.288Z,41.50
2022-11-05T08:06:29.929Z,19.67
2022-11-05T08:08:58.515Z,16.27
2022-11-05T08:11:27.015Z,18.90
2022-11-05T08:13:55.624Z,6.13
2022-11-05T08:16:28.166Z,5.73
2022-11-05T08:18:56.776Z,5.83
2022-11-05T08:21:25.524Z,20.77
2022-11-05T08:23:54.057Z,7.47
2022-11-05T08:26:23.244Z,6.07
2022-11-05T08:28:51.755Z,4.00
2022-11-05T08:31:20.234Z,10.30
2022-11-05T08:33:50.112Z,5.60
2022-11-05T08:36:18.764Z,5.73
2022-11-05T08:38:47.804Z,4.97
2022-11-05T08:41:16.495Z,8.20
2022-11-05T08:43:45.129Z,3.93
2022-11-05T08:46:14.220Z,4.80
2022-11-05T08:48:42.726Z,13.60
2022-11-05T08:51:12.652Z,4.60
2022-11-05T08:53:41.110Z,10.70
2022-11-05T08:56:10.150Z,5.50
2022-11-05T08:58:38.667Z,4.73
2022-11-05T09:01:07.697Z,7.17
2022-11-05T09:03:36.653Z,7.00
2022-11-05T09:06:05.987Z,7.60
2022-11-05T09:08:36.580Z,4.80
2022-11-05T09:11:05.153Z,10.60
2022-11-05T09:13:34.835Z,4.80
2022-11-05T09:16:03.969Z,10.30
2022-11-05T09:18:33.024Z,9.40
2022-11-05T09:21:01.710Z,5.53
2022-11-05T09:23:30.444Z,6.07
2022-11-05T09:26:00.426Z,6.97
2022-11-05T09:28:30.448Z,7.40
2022-11-05T09:30:59.465Z,8.40
2022-11-05T09:33:28.422Z,9.73
2022-11-05T09:36:01.352Z,7.67
2022-11-05T09:38:30.707Z,11.37
2022-11-05T09:41:06.023Z,11.80
2022-11-05T09:43:41.731Z,8.27
2022-11-05T09:46:18.606Z,10.47
2022-11-05T09:48:53.687Z,8.50
2022-11-05T09:51:24.350Z,10.87
2022-11-05T09:53:53.665Z,6.30
2022-11-05T09:56:28.450Z,6.20
2022-11-05T09:59:03.594Z,7.77
2022-11-05T10:01:37.882Z,5.50
2022-11-05T10:04:17.713Z,10.30
2022-11-05T10:06:52.891Z,11.23
2022-11-05T10:09:27.942Z,6.67
2022-11-05T10:12:08.720Z,9.53
2022-11-05T10:14:44.251Z,11.70
2022-11-05T10:17:24.379Z,6.47
2022-11-05T10:20:01.018Z,11.10
2022-11-05T10:22:29.848Z,4.90
2022-11-05T10:24:58.784Z,6.90
2022-11-05T10:27:36.814Z,7.03
2022-11-05T10:30:06.583Z,5.53
2022-11-05T10:32:44.050Z,7.23
2022-11-05T10:35:18.456Z,10.03
2022-11-05T10:37:47.746Z,9.83
2022-11-05T10:40:30.913Z,9.90
2022-11-05T10:43:07.617Z,5.03
2022-11-05T10:45:50.822Z,7.33
2022-11-05T10:48:56.321Z,11.60
2022-11-05T10:51:25.388Z,7.20
2022-11-05T10:54:01.937Z,9.13
2022-11-05T10:56:36.292Z,6.67
2022-11-05T10:59:21.625Z,7.63
2022-11-05T11:01:59.835Z,11.60
2022-11-05T11:04:36.479Z,5.53
2022-11-05T11:07:06.606Z,6.80
2022-11-05T11:09:38.161Z,4.30
2022-11-05T11:12:17.074Z,9.70
2022-11-05T11:15:02.681Z,6.57
2022-11-05T11:17:33.771Z,5.90
2022-11-05T11:20:25.495Z,7.87
2022-11-05T11:23:16.500Z,5.30
2022-11-05T11:25:52.868Z,4.10
2022-11-05T11:28:29.646Z,5.30
2022-11-05T11:31:10.592Z,9.17
2022-11-05T11:33:41.858Z,7.20
2022-11-05T11:36:13.964Z,3.60
2022-11-05T11:38:44.170Z,6.13
2022-11-05T11:41:27.449Z,5.87
2022-11-05T11:44:03.543Z,4.20
2022-11-05T11:46:36.537Z,5.47
2022-11-05T11:49:07.206Z,6.03
2022-11-05T11:51:40.789Z,7.33
2022-11-05T11:54:24.869Z,5.50
2022-11-05T11:56:57.143Z,5.60
2022-11-05T11:59:53.946Z,4.67
2022-11-05T12:03:11.383Z,8.57
2022-11-05T12:05:48.675Z,7.77
2022-11-05T12:08:47.003Z,8.83
2022-11-05T12:11:25.160Z,3.80
2022-11-05T12:14:04.389Z,7.10
2022-11-05T12:17:00.034Z,4.10
2022-11-05T12:20:08.948Z,4.13
2022-11-05T12:23:14.747Z,4.40
2022-11-05T12:25:53.401Z,6.00
2022-11-05T12:29:12.121Z,5.27
2022-11-05T12:31:44.493Z,5.87
2022-11-05T12:34:41.250Z,5.23
2022-11-05T12:37:31.505Z,4.90
2022-11-05T12:40:35.033Z,6.90
2022-11-05T12:43:20.419Z,9.23
2022-11-05T12:45:59.939Z,8.37
2022-11-05T12:49:11.927Z,8.83
2022-11-05T12:52:00.373Z,5.40
2022-11-05T12:55:03.648Z,4.80
2022-11-05T12:57:37.374Z,8.90
2022-11-05T13:00:16.379Z,8.07
2022-11-05T13:02:55.310Z,10.57
2022-11-05T13:05:36.031Z,5.77
2022-11-05T13:08:13.123Z,6.20
2022-11-05T13:10:50.930Z,6.03
2022-11-05T13:13:30.236Z,6.73
2022-11-05T13:16:06.572Z,8.93
2022-11-05T13:18:44.971Z,8.90
2022-11-05T13:21:15.152Z,11.53
2022-11-05T13:23:51.361Z,8.50
2022-11-05T13:26:27.917Z,4.57
2022-11-05T13:29:06.168Z,8.23
2022-11-05T13:31:39.405Z,6.93
2022-11-05T13:34:13.252Z,8.30
2022-11-05T13:37:11.840Z,6.77
2022-11-05T13:39:51.846Z,4.73
2022-11-05T13:42:57.267Z,6.10
2022-11-05T13:46:09.052Z,10.13
2022-11-05T13:49:24.914Z,12.60
2022-11-05T13:52:01.901Z,6.60
2022-11-05T13:55:34.454Z,6.20
2022-11-05T13:58:37.248Z,10.10
2022-11-05T14:01:22.538Z,5.63
2022-11-05T14:03:56.096Z,7.70
2022-11-05T14:06:29.161Z,4.70
2022-11-05T14:09:02.376Z,7.63
2022-11-05T14:11:36.899Z,7.83
2022-11-05T14:14:09.484Z,8.17
2022-11-05T14:16:52.330Z,9.10
2022-11-05T14:19:49.998Z,6.57
2022-11-05T14:22:40.582Z,8.23
2022-11-05T14:26:14.177Z,4.70
2022-11-05T14:28:50.990Z,6.73
2022-11-05T14:34:48.414Z,13.17
2022-11-05T14:37:37.011Z,10.07
2022-11-05T14:40:38.884Z,5.60
2022-11-05T14:43:20.595Z,6.30
2022-11-05T14:46:01.230Z,6.77
2022-11-05T14:48:41.329Z,8.53
2022-11-05T14:51:30.229Z,9.20
2022-11-05T14:54:07.266Z,9.50
2022-11-05T14:56:47.785Z,5.20
2022-11-05T14:59:57.088Z,7.80
2022-11-05T15:02:35.788Z,5.97
2022-11-05T15:05:49.936Z,5.73
2022-11-05T15:08:37.536Z,5.90
2022-11-05T15:11:20.249Z,6.03
2022-11-05T15:14:04.658Z,3.73
2022-11-05T15:16:41.674Z,6.50
2022-11-05T15:19:21.552Z,6.23
2022-11-05T15:21:52.589Z,6.03
2022-11-05T15:24:22.831Z,6.83
2022-11-05T15:27:03.954Z,6.40
2022-11-05T15:29:34.480Z,7.83
2022-11-05T15:32:03.601Z,7.00
2022-11-05T15:34:36.082Z,5.10
2022-11-05T15:37:23.133Z,7.93
2022-11-05T15:39:54.009Z,5.60
2022-11-05T15:42:25.507Z,5.87
2022-11-05T15:44:56.962Z,8.67
2022-11-05T15:47:28.501Z,5.43
2022-11-05T15:50:01.377Z,7.97
2022-11-05T15:52:36.614Z,6.50
2022-11-05T15:55:19.962Z,7.93
2022-11-05T15:57:52.760Z,10.03
2022-11-05T16:00:25.886Z,10.10
2022-11-05T16:02:59.442Z,7.00
2022-11-05T16:05:34.420Z,7.90
2022-11-05T16:08:05.359Z,9.30
2022-11-05T16:10:38.701Z,8.63
2022-11-05T16:13:31.943Z,24.20
2022-11-05T16:16:03.027Z,6.23
2022-11-05T16:18:37.852Z,6.97
2022-11-05T16:21:10.992Z,9.90
2022-11-05T16:23:47.150Z,9.40
2022-11-05T16:27:01.193Z,8.63
2022-11-05T16:29:30.807Z,11.33
2022-11-05T16:32:02.093Z,11.97
2022-11-05T16:34:37.911Z,12.13
2022-11-05T16:37:13.427Z,10.33
2022-11-05T16:39:42.061Z,6.93
2022-11-05T16:42:40.199Z,9.80
2022-11-05T16:45:13.748Z,9.07
2022-11-05T16:47:43.810Z,9.60
2022-11-05T16:50:24.301Z,10.43
2022-11-05T16:52:54.471Z,8.80
2022-11-05T16:55:23.244Z,9.33
2022-11-05T16:57:55.707Z,9.63
2022-11-05T17:00:26.445Z,9.50
2022-11-05T17:02:55.775Z,11.47
2022-11-05T17:05:29.902Z,7.20
2022-11-05T17:08:01.237Z,11.63
2022-11-05T17:10:29.917Z,11.27
2022-11-05T17:12:58.998Z,6.70
2022-11-05T17:15:31.215Z,10.37
2022-11-05T17:18:00.585Z,13.07
2022-11-05T17:20:40.757Z,8.93
2022-11-05T17:23:14.024Z,9.40
2022-11-05T17:25:47.369Z,13.63
2022-11-05T17:28:17.483Z,14.07
2022-11-05T17:30:52.196Z,13.73
2022-11-05T17:33:23.258Z,11.80
2022-11-05T17:35:53.052Z,8.90
2022-11-05T17:38:25.816Z,12.00
2022-11-05T17:40:54.935Z,10.77
2022-11-05T17:43:24.616Z,10.30
2022-11-05T17:45:55.188Z,11.37
2022-11-05T17:48:26.126Z,11.20
2022-11-05T17:50:56.856Z,13.93
2022-11-05T17:53:26.957Z,12.17
2022-11-05T17:55:55.651Z,10.80
2022-11-05T17:58:24.204Z,15.60
2022-11-05T18:00:52.855Z,15.50
2022-11-05T18:03:21.548Z,10.37
2022-11-05T18:05:50.217Z,12.70
2022-11-05T18:08:18.821Z,13.20
2022-11-05T18:10:49.398Z,13.17
2022-11-05T18:13:18.017Z,12.80
2022-11-05T18:15:46.932Z,10.17
2022-11-05T18:18:15.850Z,13.17
2022-11-05T18:20:44.630Z,22.70
2022-11-05T18:23:14.272Z,11.77
2022-11-05T18:25:44.888Z,12.30
2022-11-05T18:28:15.939Z,9.80
2022-11-05T18:30:44.878Z,19.10
2022-11-05T18:33:16.639Z,12.30
2022-11-05T18:35:46.303Z,14.70
2022-11-05T18:38:15.349Z,13.43
2022-11-05T18:40:44.416Z,15.60
2022-11-05T18:43:15.087Z,10.97
2022-11-05T18:45:44.209Z,10.00
2022-11-05T18:48:13.400Z,14.17
2022-11-05T18:50:42.647Z,23.77
2022-11-05T18:53:11.461Z,20.23
2022-11-05T18:55:41.882Z,10.90
2022-11-05T18:58:10.843Z,12.80
2022-11-05T19:00:42.439Z,18.17
2022-11-05T19:03:10.948Z,18.10
2022-11-05T19:05:40.201Z,12.10
2022-11-05T19:08:08.734Z,14.50
2022-11-05T19:10:41.230Z,12.27
2022-11-05T19:13:09.870Z,11.63
2022-11-05T19:15:38.496Z,11.73
2022-11-05T19:18:08.617Z,12.80
2022-11-05T19:20:38.043Z,12.73
2022-11-05T19:23:07.056Z,16.63
2022-11-05T19:25:37.979Z,11.50
2022-11-05T19:28:06.775Z,14.73
2022-11-05T19:30:35.365Z,11.20
2022-11-05T19:33:03.994Z,14.90
2022-11-05T19:35:39.934Z,15.40
2022-11-05T19:38:10.291Z,13.70
2022-11-05T19:40:39.366Z,14.37
2022-11-05T19:43:07.904Z,14.10
2022-11-05T19:45:44.633Z,13.83
2022-11-05T19:48:19.062Z,13.63
2022-11-05T19:50:49.743Z,11.47
2022-11-05T19:53:18.699Z,13.40
2022-11-05T19:55:47.698Z,10.50
2022-11-05T19:58:17.277Z,12.30
2022-11-05T20:00:46.014Z,27.00
2022-11-05T20:03:14.871Z,23.30
2022-11-05T20:05:43.504Z,14.50
2022-11-05T20:08:14.175Z,16.00
2022-11-05T20:10:43.227Z,11.70
2022-11-05T20:13:17.014Z,12.83
2022-11-05T20:15:48.598Z,18.50
2022-11-05T20:18:17.361Z,23.00
2022-11-05T20:20:47.896Z,19.97
2022-11-05T20:23:17.963Z,16.53
2022-11-05T20:25:46.806Z,22.27
2022-11-05T20:28:15.717Z,11.60
2022-11-05T20:30:44.510Z,20.50
2022-11-05T20:33:13.509Z,18.37
2022-11-05T20:35:43.048Z,14.30
2022-11-05T20:38:12.570Z,16.63
2022-11-05T20:40:42.971Z,15.87
2022-11-05T20:43:11.857Z,12.10
2022-11-05T20:45:40.499Z,15.80
2022-11-05T20:48:09.335Z,19.00
2022-11-05T20:50:42.790Z,10.43
2022-11-05T20:53:15.373Z,12.73
2022-11-05T20:55:49.124Z,16.77
2022-11-05T20:58:18.916Z,15.40
2022-11-05T21:00:53.623Z,11.47
2022-11-05T21:03:23.431Z,18.40
2022-11-05T21:05:59.872Z,30.67
2022-11-05T21:08:29.709Z,15.20
2022-11-05T21:11:00.476Z,23.40
2022-11-05T21:13:30.966Z,13.83
2022-11-05T21:16:01.879Z,18.33
2022-11-05T21:18:37.047Z,12.97
2022-11-05T21:21:07.715Z,11.90
2022-11-05T21:23:36.971Z,13.60
2022-11-05T21:26:10.250Z,13.20
2022-11-05T21:28:45.690Z,14.40
2022-11-05T21:31:23.559Z,14.40
2022-11-05T21:33:55.175Z,15.83
2022-11-05T21:36:24.397Z,13.97
2022-11-05T21:38:53.388Z,12.13
2022-11-05T21:41:25.402Z,23.23
2022-11-05T21:43:55.223Z,16.90
2022-11-05T21:46:23.911Z,16.43
2022-11-05T21:48:53.015Z,11.80
2022-11-05T21:51:39.300Z,14.60
2022-11-05T21:54:25.389Z,10.60
2022-11-05T21:57:12.973Z,16.97
2022-11-05T21:59:52.930Z,12.77
2022-11-05T22:02:24.374Z,15.63
2022-11-05T22:05:07.778Z,15.20
2022-11-05T22:07:39.298Z,14.93
2022-11-05T22:10:15.910Z,14.90
2022-11-05T22:12:46.911Z,16.90
2022-11-05T22:15:16.148Z,11.77
2022-11-05T22:17:47.090Z,11.30
2022-11-05T22:20:17.029Z,13.70
2022-11-05T22:22:46.065Z,19.03
2022-11-05T22:25:15.314Z,14.23
2022-11-05T22:27:45.794Z,14.43
2022-11-05T22:30:16.282Z,11.43
2022-11-05T22:32:47.739Z,19.63
2022-11-05T22:35:16.962Z,17.43
2022-11-05T22:37:46.564Z,16.07
2022-11-05T22:40:15.323Z,13.40
2022-11-05T22:42:45.396Z,15.57
2022-11-05T22:45:13.992Z,13.20
2022-11-05T22:47:43.497Z,14.10
2022-11-05T22:50:12.689Z,12.73
2022-11-05T22:52:41.925Z,20.33
2022-11-05T22:55:12.352Z,16.77
2022-11-05T22:57:41.082Z,22.97
2022-11-05T23:00:21.112Z,12.63
2022-11-05T23:02:49.776Z,10.43
2022-11-05T23:05:18.636Z,15.90
2022-11-05T23:08:04.695Z,18.57
2022-11-05T23:10:51.162Z,22.83
2022-11-05T23:13:22.721Z,13.30
2022-11-05T23:16:10.281Z,14.17
2022-11-05T23:18:56.330Z,17.07
2022-11-05T23:21:45.270Z,13.70
2022-11-05T23:24:14.902Z,14.10
2022-11-05T23:26:52.692Z,12.77
2022-11-05T23:29:24.011Z,9.33
2022-11-05T23:32:11.934Z,13.47
2022-11-05T23:34:41.399Z,13.77
2022-11-05T23:37:28.985Z,13.00
2022-11-05T23:39:57.826Z,12.03
2022-11-05T23:42:49.299Z,14.53
2022-11-05T23:45:46.665Z,11.73
2022-11-05T23:48:24.130Z,12.27
2022-11-05T23:51:01.121Z,10.17
2022-11-05T23:53:32.004Z,11.40
2022-11-05T23:56:07.844Z,13.40
2022-11-05T23:58:38.138Z,9.40
